KMTW

Manitowoc County Airport

Manitowoc, Wisconsin, USA
METAR KMTW 191456Z AUTO VRB04KT 10SM SCT022 22/18 A3001 RMK AO2 SLP177 T02220178 50001
Observed Flight Rules
Aug-19 @ 14:56 UTC (41 minutes ago) Visual Flight Rules
Wind Visibility Clouds
Variable at 4 knots 10 miles
  • Scattered at 2,200' AGL
Temperatures Readings
Current 22°C / 72°F
Dewpoint 18°C / 64°F
Humidity 78%
Altimeter 30.01" Hg
Pressure 1017.7 hPa
Elevation 198
METAR KMTW 191456Z AUTO VRB04KT 10SM SCT022 22/18 A3001 RMK AO2 SLP177 T02220178 50001
Observed Flight Rules
Aug-19 @ 14:56 UTC
(41 minutes ago)
VFR
Wind Visibility
Variable at 4 knots 10 miles
Clouds
  • Scattered at 2,200' AGL
Temperature Dewpoint
22°C / 72°F 18°C / 64°F
Humidity Altimeter Pressure
78% 30.01" Hg 1017.7 hPa